Time;durP1;ratioP1;P1;durP2;ratioP2;P2;SDS_P1;SDS_P2;PMS_P1;PMS_P2;Temp;Humidity;BMP_temperature;BMP_pressure;BME280_temperature;BME280_humidity;BME280_pressure;Samples;Min_cycle;Max_cycle;Signal;HPM_P1;HPM_P2
2022/05/03 00:02:00;;;;;;;;;;;5.30;99.90;;;;;;5074727;28;19921;-86
2022/05/03 00:04:29;;;;;;;;;;;5.30;99.90;;;;;;5070096;28;19927;-86
2022/05/03 00:07:13;;;;;;;;;;;5.30;99.90;;;;;;5056949;28;19920;-86
2022/05/03 00:09:45;;;;;;;;;;;5.30;99.90;;;;;;5056673;28;20371;-86
2022/05/03 00:12:12;;;;;;;;;;;5.20;99.90;;;;;;5074299;28;19973;-86
2022/05/03 00:14:38;;;;;;;;;;;5.20;99.90;;;;;;5075215;28;19931;-86
2022/05/03 00:17:04;;;;;;;;;;;5.20;99.90;;;;;;5057473;28;19920;-86
2022/05/03 00:19:30;;;;;;;;;;;5.10;99.90;;;;;;5073964;28;19935;-86
2022/05/03 00:21:55;;;;;;;;;;;5.00;99.90;;;;;;5073379;28;19924;-86
2022/05/03 00:24:21;;;;;;;;;;;5.00;99.90;;;;;;5073772;28;19920;-86
2022/05/03 00:26:47;;;;;;;;;;;5.00;99.90;;;;;;5073839;28;19947;-86
2022/05/03 00:29:13;;;;;;;;;;;4.90;99.90;;;;;;5075173;28;19946;-86
2022/05/03 00:31:39;;;;;;;;;;;4.90;99.90;;;;;;5056232;28;20279;-86
2022/05/03 00:34:05;;;;;;;;;;;4.90;99.90;;;;;;5074328;28;19946;-86
2022/05/03 00:36:31;;;;;;;;;;;4.80;99.90;;;;;;5074541;28;19920;-87
2022/05/03 00:38:57;;;;;;;;;;;4.80;99.90;;;;;;5073545;28;20015;-86
2022/05/03 00:41:44;;;;;;;;;;;4.80;99.90;;;;;;5073768;28;19926;-86
2022/05/03 00:47:13;;;;;;;;;;;4.70;99.90;;;;;;5072726;28;19921;-86
2022/05/03 00:49:39;;;;;;;;;;;4.70;99.90;;;;;;5073833;28;20100;-86
2022/05/03 00:52:08;;;;;;;;;;;4.60;99.90;;;;;;5074322;28;20018;-86
2022/05/03 00:54:55;;;;;;;;;;;4.60;99.90;;;;;;5090514;28;19974;-86
2022/05/03 00:57:20;;;;;;;;;;;4.60;99.90;;;;;;5094581;28;19920;-85
2022/05/03 00:59:49;;;;;;;;;;;4.50;99.90;;;;;;5093660;28;20281;-86
2022/05/03 01:02:17;;;;;;;;;;;4.50;99.90;;;;;;5093970;28;20370;-86
2022/05/03 01:04:43;;;;;;;;;;;4.50;99.90;;;;;;5075643;28;19923;-86
2022/05/03 01:07:12;;;;;;;;;;;4.40;99.90;;;;;;5093454;28;20042;-86
2022/05/03 01:09:51;;;;;;;;;;;4.40;99.90;;;;;;5075906;28;20321;-86
2022/05/03 01:12:24;;;;;;;;;;;4.40;99.90;;;;;;5076274;28;19916;-86
2022/05/03 01:15:00;;;;;;;;;;;4.30;99.90;;;;;;5093164;28;19924;-86
2022/05/03 01:17:28;;;;;;;;;;;4.30;99.90;;;;;;5094195;28;19919;-86
2022/05/03 01:20:00;;;;;;;;;;;4.30;99.90;;;;;;5093438;28;19924;-86
2022/05/03 01:22:31;;;;;;;;;;;4.30;99.90;;;;;;5093197;28;19919;-86
2022/05/03 01:25:03;;;;;;;;;;;4.30;99.90;;;;;;5093099;28;19920;-86
2022/05/03 01:27:40;;;;;;;;;;;4.20;99.90;;;;;;5075789;28;20428;-86
2022/05/03 01:30:08;;;;;;;;;;;4.20;99.90;;;;;;5076018;28;19923;-86
2022/05/03 01:32:36;;;;;;;;;;;4.20;99.90;;;;;;5075698;28;20373;-86
2022/05/03 01:35:05;;;;;;;;;;;4.20;99.90;;;;;;5074617;28;19920;-85
2022/05/03 01:37:30;;;;;;;;;;;4.20;99.90;;;;;;5093770;28;19927;-86
2022/05/03 01:40:06;;;;;;;;;;;4.20;99.90;;;;;;5094343;28;20357;-86
2022/05/03 01:42:32;;;;;;;;;;;4.20;99.90;;;;;;5093103;28;19920;-86
2022/05/03 01:44:57;;;;;;;;;;;4.20;99.90;;;;;;5093337;28;19924;-86
2022/05/03 01:47:23;;;;;;;;;;;4.20;99.90;;;;;;5075731;28;19920;-86
2022/05/03 01:50:20;;;;;;;;;;;4.20;99.90;;;;;;5074137;28;19955;-85
2022/05/03 01:53:05;;;;;;;;;;;4.10;99.90;;;;;;5075268;28;20321;-86
2022/05/03 01:55:30;;;;;;;;;;;4.10;99.90;;;;;;5075116;28;19927;-86
2022/05/03 01:58:14;;;;;;;;;;;4.10;99.90;;;;;;5074658;28;19916;-86
2022/05/03 02:00:42;;;;;;;;;;;4.10;99.90;;;;;;5079000;28;19974;-86
2022/05/03 02:03:19;;;;;;;;;;;4.10;99.90;;;;;;5078874;28;19924;-86
2022/05/03 02:05:50;;;;;;;;;;;4.00;99.90;;;;;;5097217;28;19927;-86
2022/05/03 02:08:20;;;;;;;;;;;4.00;99.90;;;;;;5098083;28;19998;-86
2022/05/03 02:10:50;;;;;;;;;;;4.00;99.90;;;;;;5096495;28;19920;-86
2022/05/03 02:13:16;;;;;;;;;;;4.00;99.90;;;;;;5079797;28;19920;-86
2022/05/03 02:15:43;;;;;;;;;;;4.00;99.90;;;;;;5079045;28;19927;-86
2022/05/03 02:18:15;;;;;;;;;;;4.00;99.90;;;;;;5096639;28;19920;-86
2022/05/03 02:20:46;;;;;;;;;;;4.00;99.90;;;;;;5097365;28;19919;-86
2022/05/03 02:23:12;;;;;;;;;;;4.00;99.90;;;;;;5097409;28;19967;-86
2022/05/03 02:25:57;;;;;;;;;;;3.90;99.90;;;;;;5096457;28;19920;-86
2022/05/03 02:28:25;;;;;;;;;;;3.90;99.90;;;;;;5097406;28;20010;-86
2022/05/03 02:30:51;;;;;;;;;;;3.80;99.90;;;;;;5097030;28;20007;-86
2022/05/03 02:33:23;;;;;;;;;;;3.80;99.90;;;;;;5096655;28;19998;-86
2022/05/03 02:35:50;;;;;;;;;;;3.80;99.90;;;;;;5097344;28;19920;-86
2022/05/03 02:38:20;;;;;;;;;;;3.70;99.90;;;;;;5078651;28;19974;-86
2022/05/03 02:40:49;;;;;;;;;;;3.70;99.90;;;;;;5078348;28;19920;-86
2022/05/03 02:43:16;;;;;;;;;;;3.70;99.90;;;;;;5079139;28;19927;-86
2022/05/03 02:45:46;;;;;;;;;;;3.60;99.90;;;;;;5097553;28;20286;-86
2022/05/03 02:48:17;;;;;;;;;;;3.60;99.90;;;;;;5097851;28;20271;-86
2022/05/03 02:50:53;;;;;;;;;;;3.70;99.90;;;;;;5096445;28;19957;-86
2022/05/03 02:53:24;;;;;;;;;;;3.60;99.90;;;;;;5095774;28;19926;-85
2022/05/03 02:55:50;;;;;;;;;;;3.20;99.90;;;;;;5096111;28;19966;-86
2022/05/03 02:58:18;;;;;;;;;;;3.60;99.90;;;;;;5078516;28;19915;-86
2022/05/03 03:03:53;;;;;;;;;;;3.50;99.90;;;;;;5096397;28;20354;-86
2022/05/03 03:06:21;;;;;;;;;;;3.50;99.90;;;;;;5096416;28;20147;-86
2022/05/03 03:08:47;;;;;;;;;;;3.40;99.90;;;;;;5077339;28;19965;-86
2022/05/03 03:11:24;;;;;;;;;;;3.40;99.90;;;;;;5096501;28;19924;-86
2022/05/03 03:14:08;;;;;;;;;;;3.40;99.90;;;;;;5077206;28;19920;-86
2022/05/03 03:16:35;;;;;;;;;;;3.40;99.90;;;;;;5077994;28;19920;-86
2022/05/03 03:19:12;;;;;;;;;;;3.40;99.90;;;;;;5077920;28;19920;-86
2022/05/03 03:21:39;;;;;;;;;;;3.40;99.90;;;;;;5078774;28;19931;-87
2022/05/03 03:24:08;;;;;;;;;;;3.40;99.90;;;;;;5096373;28;19920;-87
2022/05/03 03:26:34;;;;;;;;;;;3.40;99.90;;;;;;5096246;28;19973;-86
2022/05/03 03:29:03;;;;;;;;;;;3.40;99.90;;;;;;5094897;28;19920;-85
2022/05/03 03:31:29;;;;;;;;;;;3.40;99.90;;;;;;5097182;28;20011;-85
2022/05/03 03:33:55;;;;;;;;;;;3.30;99.90;;;;;;5095645;28;20271;-86
2022/05/03 03:36:22;;;;;;;;;;;3.40;99.90;;;;;;5095488;28;19927;-86
2022/05/03 03:38:48;;;;;;;;;;;3.40;99.90;;;;;;5077597;28;20287;-86
2022/05/03 03:41:13;;;;;;;;;;;3.30;99.90;;;;;;5095682;28;19927;-86
2022/05/03 03:43:40;;;;;;;;;;;3.30;99.90;;;;;;5094993;28;19966;-86
2022/05/03 03:46:06;;;;;;;;;;;3.30;99.90;;;;;;5095884;28;19920;-86
2022/05/03 03:48:32;;;;;;;;;;;3.20;99.90;;;;;;5077600;28;19943;-86
2022/05/03 03:51:01;;;;;;;;;;;3.20;99.90;;;;;;5077273;28;19920;-84
2022/05/03 03:53:27;;;;;;;;;;;3.20;99.90;;;;;;5076826;28;20284;-84
2022/05/03 03:55:53;;;;;;;;;;;3.20;99.90;;;;;;5094406;28;19920;-84
2022/05/03 03:58:19;;;;;;;;;;;3.40;99.90;;;;;;5095210;28;19916;-85
2022/05/03 04:00:45;;;;;;;;;;;3.20;99.90;;;;;;5094931;28;19920;-85
2022/05/03 04:03:11;;;;;;;;;;;3.30;99.90;;;;;;5094736;28;20372;-85
2022/05/03 04:05:37;;;;;;;;;;;3.30;99.90;;;;;;5095130;28;20007;-85
2022/05/03 04:08:03;;;;;;;;;;;3.30;99.90;;;;;;5095072;28;19919;-85
2022/05/03 04:10:29;;;;;;;;;;;3.30;99.90;;;;;;5094623;28;20351;-85
2022/05/03 04:12:54;;;;;;;;;;;3.40;99.90;;;;;;5095053;28;19948;-85
2022/05/03 04:15:20;;;;;;;;;;;3.40;99.90;;;;;;5077158;28;20065;-84
2022/05/03 04:17:45;;;;;;;;;;;3.40;99.90;;;;;;5094024;28;19968;-85
2022/05/03 04:20:18;;;;;;;;;;;3.40;99.90;;;;;;5095363;28;19924;-85
2022/05/03 04:22:43;;;;;;;;;;;3.40;99.90;;;;;;5094623;28;19920;-85
2022/05/03 04:25:09;;;;;;;;;;;3.40;99.90;;;;;;5094277;28;19927;-85
2022/05/03 04:27:35;;;;;;;;;;;3.40;99.90;;;;;;5095222;28;20294;-85
2022/05/03 04:30:01;;;;;;;;;;;3.50;99.90;;;;;;5094267;28;20459;-85
2022/05/03 04:32:30;;;;;;;;;;;3.50;99.90;;;;;;5076064;28;19920;-85
2022/05/03 04:34:56;;;;;;;;;;;3.50;99.90;;;;;;5094868;28;19945;-85
2022/05/03 04:37:21;;;;;;;;;;;3.50;99.90;;;;;;5076850;28;19985;-85
2022/05/03 04:39:46;;;;;;;;;;;3.60;99.90;;;;;;5075649;28;19919;-85
2022/05/03 04:42:12;;;;;;;;;;;3.70;99.90;;;;;;5076950;28;19920;-85
2022/05/03 04:44:38;;;;;;;;;;;3.70;99.90;;;;;;5094940;28;19924;-85
2022/05/03 04:47:03;;;;;;;;;;;3.70;99.90;;;;;;5094036;28;19924;-84
2022/05/03 04:49:29;;;;;;;;;;;3.80;99.90;;;;;;5076488;28;20343;-85
2022/05/03 04:51:55;;;;;;;;;;;3.80;99.90;;;;;;5094178;28;19942;-84
2022/05/03 04:54:21;;;;;;;;;;;3.90;99.90;;;;;;5094601;28;20294;-85
2022/05/03 04:56:51;;;;;;;;;;;4.00;99.90;;;;;;5094777;28;19934;-85
2022/05/03 04:59:16;;;;;;;;;;;4.10;99.90;;;;;;5093572;28;20327;-86
2022/05/03 05:01:42;;;;;;;;;;;4.10;99.90;;;;;;5093959;28;20046;-86
2022/05/03 05:04:07;;;;;;;;;;;4.30;99.90;;;;;;5076281;28;19924;-86
2022/05/03 05:06:33;;;;;;;;;;;4.40;99.90;;;;;;5075722;28;19927;-86
2022/05/03 05:08:58;;;;;;;;;;;4.60;99.90;;;;;;5094001;28;20294;-86
2022/05/03 05:11:24;;;;;;;;;;;4.80;99.90;;;;;;5094372;28;19924;-86
2022/05/03 05:13:50;;;;;;;;;;;4.90;99.90;;;;;;5078203;28;19923;-86
2022/05/03 05:16:15;;;;;;;;;;;5.00;99.90;;;;;;5076105;28;19920;-86
2022/05/03 05:18:41;;;;;;;;;;;5.20;99.90;;;;;;5093948;28;20286;-86
2022/05/03 05:21:06;;;;;;;;;;;5.40;99.90;;;;;;5093402;28;20015;-86
2022/05/03 05:23:31;;;;;;;;;;;5.50;99.90;;;;;;5093920;28;19927;-86
2022/05/03 05:25:57;;;;;;;;;;;5.70;99.90;;;;;;5093940;28;19920;-86
2022/05/03 05:28:23;;;;;;;;;;;5.80;99.90;;;;;;5075230;28;19967;-86
2022/05/03 05:30:49;;;;;;;;;;;6.00;99.90;;;;;;5075136;28;19949;-86
2022/05/03 05:33:15;;;;;;;;;;;6.10;99.90;;;;;;5074916;28;20018;-86
2022/05/03 05:35:40;;;;;;;;;;;6.20;99.90;;;;;;5075189;28;19967;-87
2022/05/03 05:38:06;;;;;;;;;;;6.30;99.90;;;;;;5093853;28;19987;-86
2022/05/03 05:40:31;;;;;;;;;;;6.40;99.90;;;;;;5093831;28;19920;-86
2022/05/03 05:42:59;;;;;;;;;;;6.60;99.90;;;;;;5092985;28;19967;-87
2022/05/03 05:45:25;;;;;;;;;;;6.60;99.90;;;;;;5094416;28;19915;-87
2022/05/03 05:47:50;;;;;;;;;;;6.70;99.90;;;;;;5076059;28;19927;-86
2022/05/03 05:50:16;;;;;;;;;;;6.90;99.90;;;;;;5093237;28;20027;-86
2022/05/03 05:55:25;;;;;;;;;;;7.00;99.90;;;;;;5075088;28;19920;-86
2022/05/03 05:57:51;;;;;;;;;;;7.10;99.90;;;;;;5093151;28;20370;-86
2022/05/03 06:00:17;;;;;;;;;;;7.30;99.90;;;;;;5075505;28;19966;-86
2022/05/03 06:02:43;;;;;;;;;;;7.40;99.90;;;;;;5074828;28;19966;-86
2022/05/03 06:05:08;;;;;;;;;;;7.50;99.90;;;;;;5093019;28;20336;-86
2022/05/03 06:07:34;;;;;;;;;;;7.70;99.90;;;;;;5093517;28;19920;-86
2022/05/03 06:09:59;;;;;;;;;;;7.70;99.90;;;;;;5092127;28;20281;-86
2022/05/03 06:12:25;;;;;;;;;;;7.90;99.90;;;;;;5093838;28;19949;-86
2022/05/03 06:14:50;;;;;;;;;;;8.10;99.90;;;;;;5092764;28;19924;-86
2022/05/03 06:17:16;;;;;;;;;;;8.20;99.90;;;;;;5092795;28;19959;-86
2022/05/03 06:19:41;;;;;;;;;;;8.40;99.90;;;;;;5093144;28;19945;-86
2022/05/03 06:22:08;;;;;;;;;;;8.60;99.90;;;;;;5092619;28;19920;-86
2022/05/03 06:24:33;;;;;;;;;;;8.80;99.90;;;;;;5092609;28;19920;-86
2022/05/03 06:26:59;;;;;;;;;;;9.10;99.90;;;;;;5093726;28;19923;-92
2022/05/03 06:29:24;;;;;;;;;;;9.30;99.90;;;;;;5076615;28;20328;-92
2022/05/03 06:31:50;;;;;;;;;;;9.50;99.90;;;;;;5074953;28;19920;-93
2022/05/03 06:34:16;;;;;;;;;;;9.70;99.90;;;;;;5093160;28;19920;-91
2022/05/03 06:36:42;;;;;;;;;;;9.90;99.90;;;;;;5094132;28;19924;-96
2022/05/03 06:39:08;;;;;;;;;;;10.00;99.90;;;;;;5093534;28;19924;-92
2022/05/03 06:41:33;;;;;;;;;;;10.10;99.90;;;;;;5094835;28;19920;-91
2022/05/03 06:43:59;;;;;;;;;;;10.20;99.90;;;;;;5077332;28;19923;-93
2022/05/03 06:46:28;;;;;;;;;;;10.30;99.90;;;;;;5079350;28;20266;-92
2022/05/03 06:48:53;;;;;;;;;;;10.40;99.90;;;;;;5079560;28;20003;-88
2022/05/03 06:51:19;;;;;;;;;;;10.40;99.90;;;;;;5100190;28;20373;-89
2022/05/03 06:53:45;;;;;;;;;;;10.50;99.90;;;;;;5077206;28;19919;-88
2022/05/03 06:56:11;;;;;;;;;;;10.70;99.90;;;;;;5070594;28;19971;-88
2022/05/03 06:58:36;;;;;;;;;;;10.80;99.90;;;;;;5075788;28;19963;-89
2022/05/03 07:01:09;;;;;;;;;;;10.60;99.90;;;;;;5057655;28;19920;-87
2022/05/03 07:03:35;;;;;;;;;;;10.70;99.90;;;;;;5076582;28;20404;-94
2022/05/03 07:06:00;;;;;;;;;;;10.80;99.90;;;;;;5065179;28;19920;-93
2022/05/03 07:08:36;;;;;;;;;;;10.80;99.90;;;;;;5072691;28;19927;-94
2022/05/03 07:11:02;;;;;;;;;;;10.90;99.90;;;;;;5063362;28;19920;-94
2022/05/03 07:13:28;;;;;;;;;;;10.90;99.90;;;;;;5060305;28;19925;-96
2022/05/03 07:15:54;;;;;;;;;;;10.90;99.90;;;;;;5069236;28;19921;-96
2022/05/03 07:24:12;;;;;;;;;;;11.10;99.90;;;;;;5077760;28;19920;-95
2022/05/03 07:26:37;;;;;;;;;;;11.00;99.90;;;;;;5078037;28;20023;-95
2022/05/03 07:29:03;;;;;;;;;;;11.70;99.90;;;;;;5077977;28;19970;-94
2022/05/03 07:31:29;;;;;;;;;;;12.80;99.90;;;;;;5059698;28;19920;-95
2022/05/03 07:34:01;;;;;;;;;;;11.80;99.90;;;;;;5061922;28;19934;-96
2022/05/03 07:36:30;;;;;;;;;;;11.90;99.90;;;;;;5062260;28;19921;-94
2022/05/03 07:38:55;;;;;;;;;;;12.10;99.90;;;;;;5059927;28;19920;-95
2022/05/03 07:41:21;;;;;;;;;;;12.20;99.90;;;;;;5079197;28;19927;-96
2022/05/03 07:43:47;;;;;;;;;;;13.20;99.90;;;;;;5062700;28;19923;-96
2022/05/03 07:46:15;;;;;;;;;;;12.60;99.90;;;;;;5067305;28;20385;-96
2022/05/03 07:48:44;;;;;;;;;;;12.10;99.90;;;;;;5062705;28;19959;-95
2022/05/03 07:51:22;;;;;;;;;;;12.40;99.90;;;;;;5061716;28;19916;-89
2022/05/03 07:53:47;;;;;;;;;;;12.30;99.90;;;;;;5099408;28;19919;-88
2022/05/03 07:56:13;;;;;;;;;;;12.30;99.90;;;;;;5077132;28;19978;-88
2022/05/03 07:58:48;;;;;;;;;;;12.40;99.90;;;;;;5095381;28;19926;-89
2022/05/03 08:01:13;;;;;;;;;;;12.30;99.90;;;;;;5094740;28;19927;-89
2022/05/03 08:03:39;;;;;;;;;;;12.30;99.90;;;;;;5076516;28;19920;-89
2022/05/03 08:06:04;;;;;;;;;;;12.20;99.90;;;;;;5095767;28;20003;-88
2022/05/03 08:08:30;;;;;;;;;;;12.10;99.90;;;;;;5076866;28;20294;-88
2022/05/03 08:10:55;;;;;;;;;;;12.00;99.90;;;;;;5077765;28;20057;-95
2022/05/03 08:13:30;;;;;;;;;;;12.00;99.90;;;;;;5096075;28;19920;-88
2022/05/03 08:15:55;;;;;;;;;;;11.30;99.90;;;;;;5094239;28;19919;-87
2022/05/03 08:18:21;;;;;;;;;;;11.80;99.90;;;;;;5095139;28;19927;-88
2022/05/03 08:20:46;;;;;;;;;;;11.70;99.90;;;;;;5076269;28;19920;-88
2022/05/03 08:23:12;;;;;;;;;;;11.70;99.90;;;;;;5094185;28;19920;-89
2022/05/03 08:25:38;;;;;;;;;;;11.90;99.90;;;;;;5077032;28;19924;-88
2022/05/03 08:28:04;;;;;;;;;;;12.20;99.90;;;;;;5076795;28;19969;-88
2022/05/03 08:30:30;;;;;;;;;;;11.40;99.90;;;;;;5075555;28;19919;-88
2022/05/03 08:33:10;;;;;;;;;;;11.30;99.90;;;;;;5095022;28;20362;-88
2022/05/03 08:35:36;;;;;;;;;;;11.20;99.90;;;;;;5076640;28;19920;-91
2022/05/03 08:43:30;;;;;;;;;;;10.90;99.90;;;;;;5095423;28;19920;-88
2022/05/03 08:45:56;;;;;;;;;;;10.90;99.90;;;;;;5094019;28;20015;-89
2022/05/03 08:48:27;;;;;;;;;;;10.90;99.90;;;;;;5076755;28;19951;-89
2022/05/03 08:50:53;;;;;;;;;;;10.90;99.90;;;;;;5077333;28;20015;-89
2022/05/03 08:53:19;;;;;;;;;;;10.90;99.90;;;;;;5073657;28;19962;-89
2022/05/03 08:55:45;;;;;;;;;;;10.90;99.90;;;;;;5094306;28;20306;-90
2022/05/03 08:58:16;;;;;;;;;;;10.90;99.90;;;;;;5102650;28;19975;-90
2022/05/03 09:00:42;;;;;;;;;;;10.90;99.90;;;;;;5075767;28;19919;-89
2022/05/03 09:03:08;;;;;;;;;;;10.90;99.90;;;;;;5075850;28;19923;-89
2022/05/03 09:05:33;;;;;;;;;;;10.90;99.90;;;;;;5094502;28;19974;-88
2022/05/03 09:08:00;;;;;;;;;;;10.90;99.90;;;;;;5076463;28;19972;-89
2022/05/03 09:10:31;;;;;;;;;;;10.90;99.90;;;;;;5094853;28;19920;-89
2022/05/03 09:13:18;;;;;;;;;;;10.90;99.90;;;;;;5094328;28;19943;-89
2022/05/03 09:15:43;;;;;;;;;;;11.00;99.90;;;;;;5075127;28;20368;-88
2022/05/03 09:18:18;;;;;;;;;;;11.00;99.90;;;;;;5075807;28;20057;-89
2022/05/03 09:23:47;;;;;;;;;;;10.90;99.90;;;;;;5075916;28;19924;-88
2022/05/03 09:26:14;;;;;;;;;;;11.00;99.90;;;;;;5075151;28;19920;-88
2022/05/03 09:28:47;;;;;;;;;;;11.10;99.90;;;;;;5093854;28;19932;-88
2022/05/03 09:31:13;;;;;;;;;;;11.20;99.90;;;;;;5094152;28;20000;-89
2022/05/03 09:33:38;;;;;;;;;;;11.20;99.90;;;;;;5074609;28;19986;-91
2022/05/03 09:36:08;;;;;;;;;;;11.40;99.90;;;;;;5093597;28;19920;-89
2022/05/03 09:38:43;;;;;;;;;;;11.40;99.90;;;;;;5079298;28;19926;-92
2022/05/03 09:41:15;;;;;;;;;;;11.40;99.90;;;;;;5093439;28;19931;-89
2022/05/03 09:43:59;;;;;;;;;;;11.40;99.90;;;;;;5093739;28;20010;-89
2022/05/03 09:46:24;;;;;;;;;;;11.50;99.90;;;;;;5093387;28;20283;-89
2022/05/03 09:48:50;;;;;;;;;;;12.20;99.90;;;;;;5078630;28;19920;-89
2022/05/03 09:51:16;;;;;;;;;;;11.70;99.90;;;;;;5075581;28;19920;-89
2022/05/03 09:53:41;;;;;;;;;;;11.80;99.90;;;;;;5081426;28;19963;-88
2022/05/03 09:56:11;;;;;;;;;;;11.90;99.90;;;;;;5079680;28;19971;-87
2022/05/03 09:58:38;;;;;;;;;;;11.80;99.90;;;;;;5075791;28;19928;-87
2022/05/03 10:01:04;;;;;;;;;;;11.70;99.90;;;;;;5095319;28;20054;-89
2022/05/03 10:03:30;;;;;;;;;;;11.60;99.90;;;;;;5076966;28;20513;-88
2022/05/03 10:05:56;;;;;;;;;;;11.60;99.90;;;;;;5093632;28;19920;-88
2022/05/03 10:08:22;;;;;;;;;;;11.60;99.90;;;;;;5076593;28;19984;-88
2022/05/03 10:10:56;;;;;;;;;;;11.60;99.90;;;;;;5074657;28;19924;-88
2022/05/03 10:13:21;;;;;;;;;;;11.70;99.90;;;;;;5093428;28;19931;-86
2022/05/03 10:21:26;;;;;;;;;;;12.30;99.90;;;;;;5089580;28;20018;-87
2022/05/03 10:24:04;;;;;;;;;;;12.30;99.90;;;;;;5085434;28;19923;-87
2022/05/03 10:26:48;;;;;;;;;;;12.40;99.90;;;;;;5079412;28;19967;-89
2022/05/03 10:29:14;;;;;;;;;;;12.50;99.90;;;;;;5079497;28;20011;-88
2022/05/03 10:32:05;;;;;;;;;;;12.60;99.90;;;;;;5078454;28;20037;-89
2022/05/03 10:34:40;;;;;;;;;;;12.60;99.90;;;;;;5084329;28;19920;-89
2022/05/03 10:37:19;;;;;;;;;;;12.60;99.90;;;;;;5078561;28;20022;-91
2022/05/03 10:39:46;;;;;;;;;;;12.40;99.90;;;;;;5096834;28;19924;-89
2022/05/03 10:42:15;;;;;;;;;;;12.30;99.90;;;;;;5096766;28;20337;-91
2022/05/03 10:47:18;;;;;;;;;;;12.10;99.90;;;;;;5055542;28;19926;-88
2022/05/03 10:50:05;;;;;;;;;;;12.20;99.90;;;;;;5059130;28;19920;-89
2022/05/03 10:52:30;;;;;;;;;;;12.00;99.90;;;;;;5076988;28;20046;-90
2022/05/03 10:55:06;;;;;;;;;;;12.00;99.90;;;;;;5058621;28;20430;-89
2022/05/03 10:57:32;;;;;;;;;;;12.00;99.90;;;;;;5059417;28;19927;-90
2022/05/03 10:59:57;;;;;;;;;;;12.00;99.90;;;;;;5058115;28;20278;-90
2022/05/03 11:02:23;;;;;;;;;;;12.20;99.90;;;;;;5058869;28;19920;-88
2022/05/03 11:05:07;;;;;;;;;;;12.30;99.90;;;;;;5075389;28;19932;-88
2022/05/03 11:07:33;;;;;;;;;;;12.50;99.90;;;;;;5077056;28;19920;-87
2022/05/03 11:10:19;;;;;;;;;;;12.60;99.90;;;;;;5076709;28;19947;-86
2022/05/03 11:12:56;;;;;;;;;;;12.70;99.90;;;;;;5074973;28;19920;-86
2022/05/03 11:15:21;;;;;;;;;;;12.80;99.90;;;;;;5058354;28;20049;-87
2022/05/03 11:17:47;;;;;;;;;;;12.70;99.90;;;;;;5058333;28;19972;-87
2022/05/03 11:20:20;;;;;;;;;;;12.70;99.90;;;;;;5057445;28;20355;-87
2022/05/03 11:22:45;;;;;;;;;;;12.80;99.90;;;;;;5076144;28;19924;-86
2022/05/03 11:25:13;;;;;;;;;;;13.00;99.90;;;;;;5075679;28;19929;-87
2022/05/03 11:27:39;;;;;;;;;;;13.10;99.90;;;;;;5057294;28;19924;-87
2022/05/03 11:30:06;;;;;;;;;;;13.10;99.90;;;;;;5075534;28;19953;-92
2022/05/03 11:32:32;;;;;;;;;;;13.20;99.90;;;;;;5060402;28;19920;-90
2022/05/03 11:35:24;;;;;;;;;;;13.40;99.90;;;;;;5070946;28;19974;-88
2022/05/03 11:37:52;;;;;;;;;;;13.20;99.90;;;;;;5070213;28;19928;-87
2022/05/03 11:40:19;;;;;;;;;;;13.30;99.90;;;;;;5057046;28;19956;-86
2022/05/03 11:42:45;;;;;;;;;;;13.40;99.90;;;;;;5074857;22;20419;-90
2022/05/03 11:45:14;;;;;;;;;;;13.20;99.90;;;;;;5092331;28;20292;-88
2022/05/03 11:47:42;;;;;;;;;;;13.10;99.90;;;;;;5085852;28;20068;-87
2022/05/03 11:50:08;;;;;;;;;;;13.10;99.90;;;;;;5101769;28;20336;-89
2022/05/03 11:58:03;;;;;;;;;;;13.10;99.90;;;;;;5087241;28;19927;-88
2022/05/03 12:00:28;;;;;;;;;;;13.10;99.90;;;;;;5066973;28;19921;-88
2022/05/03 12:02:57;;;;;;;;;;;13.20;99.90;;;;;;5084012;28;20014;-88
2022/05/03 12:05:23;;;;;;;;;;;13.20;99.90;;;;;;5086838;28;19916;-88
2022/05/03 12:07:50;;;;;;;;;;;13.30;99.90;;;;;;5083807;28;19973;-87
2022/05/03 12:10:18;;;;;;;;;;;13.50;99.90;;;;;;5089255;28;19919;-87
2022/05/03 12:12:44;;;;;;;;;;;13.70;99.90;;;;;;5068953;28;19920;-88
2022/05/03 12:17:50;;;;;;;;;;;13.70;99.90;;;;;;5043551;22;19984;-89
2022/05/03 12:20:16;;;;;;;;;;;13.60;99.90;;;;;;5033297;28;19975;-87
2022/05/03 12:22:41;;;;;;;;;;;13.60;99.90;;;;;;5045330;22;21256;-88
2022/05/03 12:25:25;;;;;;;;;;;13.70;99.90;;;;;;5074760;28;19981;-87
2022/05/03 12:27:50;;;;;;;;;;;13.60;99.90;;;;;;5074753;28;20428;-89
2022/05/03 12:30:16;;;;;;;;;;;13.10;99.90;;;;;;5056000;28;19965;-90
2022/05/03 12:32:47;;;;;;;;;;;13.50;99.90;;;;;;5074720;28;19924;-89
2022/05/03 12:35:28;;;;;;;;;;;13.20;99.90;;;;;;5056933;28;20301;-90
2022/05/03 12:38:15;;;;;;;;;;;13.70;99.90;;;;;;5074674;28;19920;-91
2022/05/03 12:40:48;;;;;;;;;;;13.60;99.90;;;;;;5056366;28;20367;-89
2022/05/03 12:43:29;;;;;;;;;;;13.60;99.90;;;;;;5056366;28;20311;-88
2022/05/03 12:46:07;;;;;;;;;;;13.70;99.90;;;;;;5057012;28;19916;-91
2022/05/03 12:48:34;;;;;;;;;;;13.80;99.90;;;;;;5074919;28;19921;-90
2022/05/03 12:51:05;;;;;;;;;;;13.80;99.90;;;;;;5055801;28;19924;-86
2022/05/03 12:53:52;;;;;;;;;;;13.80;99.90;;;;;;5056791;28;19920;-90
2022/05/03 12:59:11;;;;;;;;;;;14.10;99.90;;;;;;5055328;28;19920;-90
2022/05/03 13:01:44;;;;;;;;;;;14.10;99.90;;;;;;5078359;28;20401;-90
2022/05/03 13:04:15;;;;;;;;;;;14.10;99.90;;;;;;5059860;28;19920;-90
2022/05/03 13:06:41;;;;;;;;;;;14.10;99.90;;;;;;5056755;28;19989;-91
2022/05/03 13:09:07;;;;;;;;;;;14.10;99.90;;;;;;5056272;28;20004;-90
2022/05/03 13:11:34;;;;;;;;;;;13.70;99.90;;;;;;5073294;28;20795;-91
2022/05/03 13:14:00;;;;;;;;;;;14.20;99.90;;;;;;5064610;28;19928;-89
2022/05/03 13:16:25;;;;;;;;;;;14.50;99.90;;;;;;5056254;28;19917;-89
2022/05/03 13:18:51;;;;;;;;;;;15.50;99.90;;;;;;5072798;28;19920;-90
2022/05/03 13:21:16;;;;;;;;;;;14.70;99.90;;;;;;5073290;28;19921;-91
2022/05/03 13:23:43;;;;;;;;;;;14.90;99.90;;;;;;5063194;28;19998;-90
2022/05/03 13:26:09;;;;;;;;;;;14.70;99.90;;;;;;5073296;28;20037;-89
2022/05/03 13:28:37;;;;;;;;;;;14.70;99.90;;;;;;5071955;28;19916;-90
2022/05/03 13:31:03;;;;;;;;;;;14.80;99.90;;;;;;5073407;28;19954;-90
2022/05/03 13:33:29;;;;;;;;;;;14.60;99.90;;;;;;5072617;28;19920;-89
2022/05/03 13:41:23;;;;;;;;;;;14.60;99.90;;;;;;5072301;28;19924;-89
2022/05/03 13:43:48;;;;;;;;;;;14.80;99.90;;;;;;5072002;28;19990;-89
2022/05/03 13:46:14;;;;;;;;;;;15.20;99.90;;;;;;5083993;28;19931;-87
2022/05/03 13:48:40;;;;;;;;;;;15.20;99.90;;;;;;5080531;28;20329;-88
2022/05/03 13:51:05;;;;;;;;;;;15.60;99.90;;;;;;5084656;28;19924;-87
2022/05/03 13:53:31;;;;;;;;;;;16.10;99.90;;;;;;5098257;28;19927;-88
2022/05/03 13:55:56;;;;;;;;;;;16.20;99.90;;;;;;5082617;28;20016;-93
2022/05/03 13:58:23;;;;;;;;;;;17.10;99.90;;;;;;5082012;28;19977;-90
2022/05/03 14:00:49;;;;;;;;;;;16.50;99.90;;;;;;5079121;28;19995;-93
2022/05/03 14:03:23;;;;;;;;;;;15.80;99.90;;;;;;5080612;28;19924;-90
2022/05/03 14:05:57;;;;;;;;;;;16.40;99.90;;;;;;5077027;28;19921;-91
2022/05/03 14:08:22;;;;;;;;;;;17.10;99.90;;;;;;5081343;28;20398;-89
2022/05/03 14:10:48;;;;;;;;;;;17.90;99.90;;;;;;5089277;28;19963;-91
2022/05/03 14:13:13;;;;;;;;;;;17.90;99.90;;;;;;5084826;28;19921;-91
2022/05/03 14:15:48;;;;;;;;;;;16.60;99.90;;;;;;5068916;22;19927;-93
2022/05/03 14:18:25;;;;;;;;;;;17.40;99.90;;;;;;5064329;28;19921;-92
2022/05/03 14:22:55;;;;;;;13.55;3.83;;;16.80;99.90;;;;;;5162196;27;20389;-90
2022/05/03 14:25:23;;;;;;;11.70;3.03;;;16.30;99.90;;;;;;5142505;27;20099;-91
2022/05/03 14:27:49;;;;;;;10.15;2.90;;;17.10;99.90;;;;;;5159955;27;20488;-89
2022/05/03 14:30:15;;;;;;;10.23;3.13;;;16.40;99.90;;;;;;5172232;27;20039;-89
2022/05/03 14:32:45;;;;;;;11.05;2.78;;;15.90;99.90;;;;;;5153514;27;20046;-89
2022/05/03 14:35:12;;;;;;;10.05;3.08;;;15.70;99.90;;;;;;5153652;27;20045;-89
2022/05/03 14:37:38;;;;;;;9.63;2.90;;;15.50;99.90;;;;;;5152721;27;20073;-89
2022/05/03 14:40:05;;;;;;;8.07;2.88;;;15.10;99.90;;;;;;5154073;27;20129;-90
2022/05/03 14:42:37;;;;;;;11.30;3.13;;;15.40;99.90;;;;;;5123437;27;20039;-89
2022/05/03 14:45:05;;;;;;;8.75;2.72;;;15.30;99.90;;;;;;5145988;27;20080;-88
2022/05/03 14:47:37;;;;;;;9.80;3.00;;;15.30;99.90;;;;;;5147592;27;20074;-87
2022/05/03 14:50:08;;;;;;;9.77;3.10;;;15.00;99.90;;;;;;5130156;27;20104;-87
2022/05/03 14:52:34;;;;;;;10.55;2.75;;;14.90;99.90;;;;;;5138756;27;20486;-89
2022/05/03 14:55:00;;;;;;;11.43;3.50;;;16.00;99.90;;;;;;5159445;27;20093;-87
2022/05/03 15:03:09;;;;;;;10.57;2.83;;;15.10;99.90;;;;;;5141314;27;20440;-91
2022/05/03 15:05:44;;;;;;;10.95;3.05;;;15.20;99.90;;;;;;5142718;27;20039;-92
2022/05/03 15:08:10;;;;;;;10.05;2.92;;;14.90;99.90;;;;;;5163774;27;20091;-92
2022/05/03 15:10:42;;;;;;;9.80;3.00;;;15.00;99.90;;;;;;5157748;27;20049;-90
2022/05/03 15:13:09;;;;;;;8.50;2.88;;;14.90;99.90;;;;;;5143106;27;20043;-90
2022/05/03 15:15:36;;;;;;;9.90;2.72;;;15.20;99.90;;;;;;5155843;27;20103;-92
2022/05/03 15:18:02;;;;;;;9.45;3.50;;;14.70;99.90;;;;;;5140190;27;20050;-91
2022/05/03 15:20:32;;;;;;;10.50;3.00;;;14.60;99.90;;;;;;5140054;27;20038;-87